createdAt,value
2022-08-14T00:05:20.389Z,0
2022-08-14T00:10:56.245Z,0
2022-08-14T00:16:45.356Z,0
2022-08-14T00:22:08.056Z,0
2022-08-14T00:27:38.486Z,0
2022-08-14T00:33:18.482Z,0
2022-08-14T00:38:46.440Z,0
2022-08-14T00:44:11.277Z,0
2022-08-14T00:49:44.970Z,0
2022-08-14T00:55:08.442Z,0
2022-08-14T01:00:57.988Z,0
2022-08-14T01:06:21.117Z,0
2022-08-14T01:12:03.814Z,0
2022-08-14T01:17:27.033Z,0
2022-08-14T01:22:52.763Z,0
2022-08-14T01:28:57.676Z,0
2022-08-14T01:36:20.965Z,0
2022-08-14T01:41:46.996Z,0
2022-08-14T01:47:12.103Z,0
2022-08-14T01:53:05.964Z,0
2022-08-14T01:58:30.204Z,1
2022-08-14T02:03:57.730Z,0
2022-08-14T02:09:22.910Z,0
2022-08-14T02:15:02.028Z,0
2022-08-14T02:20:24.480Z,0
2022-08-14T02:25:55.281Z,0
2022-08-14T02:31:42.701Z,0
2022-08-14T02:42:57.924Z,0
2022-08-14T02:49:06.610Z,0
2022-08-14T02:54:29.731Z,0
2022-08-14T02:59:52.754Z,0
2022-08-14T03:05:15.062Z,0
2022-08-14T04:06:32.273Z,3
2022-08-14T04:11:59.696Z,12
2022-08-14T04:17:22.611Z,23
2022-08-14T04:22:46.923Z,33.2
2022-08-14T04:29:15.885Z,42.2
2022-08-14T04:34:49.560Z,51.8
2022-08-14T04:40:15.937Z,76.8
2022-08-14T04:45:39.887Z,152.8
2022-08-14T04:56:35.019Z,142
2022-08-14T05:01:58.364Z,147.9
2022-08-14T05:08:01.979Z,164.3
2022-08-14T05:14:17.445Z,191.8
2022-08-14T05:22:01.525Z,221
2022-08-14T05:27:40.205Z,243.1
2022-08-14T05:33:03.125Z,269.8
2022-08-14T05:38:35.498Z,293.7
2022-08-14T05:44:01.213Z,352.3
2022-08-14T05:49:34.569Z,366.4
2022-08-14T05:55:05.752Z,394.6
2022-08-14T06:00:39.739Z,458.1
2022-08-14T06:06:03.045Z,394.4
2022-08-14T06:11:32.489Z,457.2
2022-08-14T06:16:57.791Z,385.5
2022-08-14T06:22:24.829Z,2097.5
2022-08-14T06:27:50.823Z,2144.7
2022-08-14T06:33:18.250Z,541.6
2022-08-14T06:38:41.351Z,2243.6
2022-08-14T06:44:04.883Z,586.1
2022-08-14T06:49:58.417Z,1802.7
2022-08-14T06:55:29.702Z,1883.7
2022-08-14T07:00:53.925Z,1605.5
2022-08-14T07:06:47.705Z,1935.6
2022-08-14T07:13:04.743Z,1972.9
2022-08-14T07:18:28.799Z,2222
2022-08-14T07:29:07.704Z,2098.4
2022-08-14T07:40:12.112Z,726.8
2022-08-14T07:45:38.408Z,1941.3
2022-08-14T07:51:11.663Z,2190.8
2022-08-14T07:56:56.282Z,3323.5
2022-08-14T08:02:22.242Z,907.3
2022-08-14T08:13:10.205Z,962.9
2022-08-14T08:18:36.489Z,793.5
2022-08-14T08:24:04.388Z,2635.5
2022-08-14T08:29:30.062Z,3426.9
2022-08-14T08:34:53.803Z,3385
2022-08-14T08:40:21.264Z,3739.4
2022-08-14T08:45:47.915Z,3459.3
2022-08-14T08:51:11.939Z,3206.3
2022-08-14T08:56:42.348Z,3957.3
2022-08-14T09:26:21.749Z,3793.8
2022-08-14T09:43:58.381Z,3626.9
2022-08-14T09:49:40.941Z,4079.5
2022-08-14T10:00:31.223Z,3879
2022-08-14T10:11:59.952Z,4726.1
2022-08-14T10:17:27.721Z,3969.8
2022-08-14T10:23:23.718Z,4093.3
2022-08-14T10:34:41.044Z,3158.4
2022-08-14T10:40:52.144Z,4715.1
2022-08-14T10:48:36.714Z,4914.7
2022-08-14T10:54:40.459Z,3508.6
2022-08-14T11:00:29.416Z,4109.2
2022-08-14T11:06:03.686Z,4126.2
2022-08-14T11:11:37.635Z,3829.3
2022-08-14T11:17:00.806Z,4179.4
2022-08-14T11:22:59.242Z,3823.5
2022-08-14T11:28:50.133Z,3785.7
2022-08-14T11:34:35.039Z,4053.4
2022-08-14T11:39:59.279Z,4173.3
2022-08-14T11:45:30.190Z,3623.4
2022-08-14T11:50:52.269Z,3644.7
2022-08-14T11:56:17.790Z,3959.8
2022-08-14T12:01:41.680Z,3955.2
2022-08-14T12:07:04.449Z,4015.9
2022-08-14T12:12:39.227Z,4007.6
2022-08-14T12:18:04.962Z,4039.5
2022-08-14T12:23:37.190Z,3789.7
2022-08-14T12:29:00.948Z,3574.3
2022-08-14T12:34:27.629Z,3791.6
2022-08-14T12:39:52.675Z,3165.3
2022-08-14T12:46:29.185Z,2871
2022-08-14T12:51:52.531Z,3450
2022-08-14T12:57:21.018Z,3767.7
2022-08-14T13:02:55.793Z,3910.6
2022-08-14T13:10:51.535Z,3774
2022-08-14T13:16:38.747Z,2217.3
2022-08-14T13:27:58.147Z,1073.5
2022-08-14T13:33:22.570Z,1699.7
2022-08-14T13:44:24.190Z,1563.5
2022-08-14T13:50:18.107Z,1737.1
2022-08-14T13:55:54.101Z,2913.8
2022-08-14T14:01:20.510Z,2845.2
2022-08-14T14:06:47.017Z,3486.8
2022-08-14T14:12:56.015Z,1172.6
2022-08-14T14:18:46.206Z,3541.3
2022-08-14T14:24:16.538Z,3714.5
2022-08-14T14:29:58.692Z,3150.1
2022-08-14T14:41:15.258Z,2157.1
2022-08-14T14:46:42.390Z,2369.2
2022-08-14T14:52:05.122Z,1007.1
2022-08-14T14:57:39.356Z,1020.7
2022-08-14T15:03:04.838Z,972.8
2022-08-14T15:09:00.311Z,770
2022-08-14T15:15:09.446Z,629.6
2022-08-14T15:20:32.122Z,623.3
2022-08-14T15:25:54.718Z,701.5
2022-08-14T15:31:22.275Z,578.2
2022-08-14T15:36:46.202Z,592.7
2022-08-14T15:42:17.903Z,644.1
2022-08-14T15:53:04.971Z,659.8
2022-08-14T15:58:27.920Z,678.7
2022-08-14T16:03:53.868Z,730.7
2022-08-14T16:09:21.431Z,749.7
2022-08-14T16:14:49.305Z,745.6
2022-08-14T16:20:47.160Z,716.2
2022-08-14T16:26:19.767Z,720.6
2022-08-14T16:31:55.874Z,718.4
2022-08-14T16:37:19.068Z,675.3
2022-08-14T16:43:18.124Z,540.3
2022-08-14T16:48:58.922Z,436.8
2022-08-14T16:54:45.164Z,392.4
2022-08-14T17:00:46.020Z,391.5
2022-08-14T17:06:36.364Z,366
2022-08-14T17:11:59.815Z,355.9
2022-08-14T17:17:23.796Z,330.2
2022-08-14T17:22:47.142Z,317.9
2022-08-14T17:39:06.318Z,217.2
2022-08-14T17:44:46.075Z,188
2022-08-14T17:51:01.982Z,175.3
2022-08-14T17:56:36.241Z,173.3
2022-08-14T18:02:01.542Z,172.3
2022-08-14T18:08:42.247Z,159.6
2022-08-14T18:14:20.784Z,128.1
2022-08-14T18:19:54.773Z,105.4
2022-08-14T18:25:22.941Z,85.7
2022-08-14T18:30:59.467Z,57.8
2022-08-14T18:37:02.039Z,44.4
2022-08-14T18:42:32.316Z,30.9
2022-08-14T18:48:19.362Z,25.1
2022-08-14T18:53:49.060Z,15
2022-08-14T18:59:22.962Z,9
2022-08-14T19:04:47.499Z,5
2022-08-14T19:10:17.489Z,1
2022-08-14T19:15:44.992Z,0
2022-08-14T19:21:18.930Z,0
2022-08-14T19:26:55.091Z,0
2022-08-14T19:32:17.997Z,0
2022-08-14T19:37:44.453Z,0
2022-08-14T19:43:10.375Z,0
2022-08-14T19:48:34.648Z,0
2022-08-14T19:53:57.407Z,0
2022-08-14T19:59:22.696Z,0
2022-08-14T20:12:03.199Z,0
2022-08-14T20:17:27.905Z,0
2022-08-14T20:22:55.770Z,0
2022-08-14T20:34:06.724Z,0
2022-08-14T20:39:44.926Z,0
2022-08-14T20:45:37.737Z,0
2022-08-14T20:51:02.199Z,0
2022-08-14T20:56:33.295Z,0
2022-08-14T21:07:41.953Z,0
2022-08-14T21:14:28.296Z,0
2022-08-14T21:19:52.385Z,0
2022-08-14T21:25:21.050Z,0
2022-08-14T21:30:52.915Z,0
2022-08-14T21:36:22.522Z,0
2022-08-14T21:41:59.371Z,0
2022-08-14T21:47:29.274Z,0
2022-08-14T21:53:06.591Z,0
2022-08-14T21:58:56.682Z,0
2022-08-14T22:04:41.243Z,0
2022-08-14T22:10:07.275Z,0
2022-08-14T22:15:30.297Z,0
2022-08-14T22:20:59.664Z,0
2022-08-14T22:26:32.738Z,0
2022-08-14T22:31:55.487Z,0
2022-08-14T22:37:17.961Z,0
2022-08-14T22:43:07.977Z,0
2022-08-14T22:48:31.126Z,0
2022-08-14T22:53:54.643Z,0
2022-08-14T23:05:03.021Z,0
2022-08-14T23:10:35.142Z,0
2022-08-14T23:15:59.157Z,0
2022-08-14T23:21:53.992Z,0
2022-08-14T23:28:04.902Z,0
2022-08-14T23:33:27.958Z,0
2022-08-14T23:38:53.820Z,0
2022-08-14T23:44:17.815Z,0
2022-08-14T23:50:32.916Z,0
2022-08-14T23:55:57.914Z,0
